Time;durP1;ratioP1;P1;durP2;ratioP2;P2;SDS_P1;SDS_P2;PMS_P1;PMS_P2;Temp;Humidity;BMP_temperature;BMP_pressure;BME280_temperature;BME280_humidity;BME280_pressure;Samples;Min_cycle;Max_cycle;Signal;HPM_P1;HPM_P2
2023/04/10 00:01:57;;;;;;;;;;;;;;;21.52;39.65;102130.09;5095121;28;19961;-72
2023/04/10 00:04:22;;;;;;;;;;;;;;;21.51;39.79;102133.81;5094699;28;19912;-72
2023/04/10 00:06:48;;;;;;;;;;;;;;;21.49;39.41;102127.69;5089896;28;19925;-72
2023/04/10 00:09:13;;;;;;;;;;;;;;;21.49;39.45;102127.69;5094041;28;19920;-72
2023/04/10 00:11:38;;;;;;;;;;;;;;;21.46;39.60;102127.00;5093461;28;19920;-72
2023/04/10 00:14:03;;;;;;;;;;;;;;;21.46;39.61;102120.75;5089302;28;19916;-71
2023/04/10 00:16:28;;;;;;;;;;;;;;;21.44;39.58;102122.75;5091082;28;20664;-72
2023/04/10 00:18:54;;;;;;;;;;;;;;;21.43;39.72;102121.91;5090700;28;19935;-72
2023/04/10 00:21:19;;;;;;;;;;;;;;;21.42;39.42;102116.66;5089068;28;20013;-72
2023/04/10 00:23:45;;;;;;;;;;;;;;;21.40;39.40;102116.78;5095166;28;19927;-72
2023/04/10 00:26:10;;;;;;;;;;;;;;;21.39;39.63;102108.84;5091244;28;19935;-72
2023/04/10 00:28:36;;;;;;;;;;;;;;;21.39;39.53;102101.56;5093918;28;19999;-72
2023/04/10 00:31:02;;;;;;;;;;;;;;;21.37;39.44;102097.34;5097044;28;19919;-72
2023/04/10 00:33:27;;;;;;;;;;;;;;;21.36;39.55;102091.06;5088502;28;19987;-71
2023/04/10 00:35:52;;;;;;;;;;;;;;;21.35;39.60;102089.38;5093337;28;19916;-72
2023/04/10 00:38:18;;;;;;;;;;;;;;;21.35;39.36;102085.81;5090572;28;19983;-72
2023/04/10 00:40:43;;;;;;;;;;;;;;;21.33;39.60;102085.97;5093009;28;19920;-72
2023/04/10 00:43:08;;;;;;;;;;;;;;;21.31;39.38;102078.97;5091940;28;19970;-72
2023/04/10 00:45:34;;;;;;;;;;;;;;;21.30;39.48;102075.44;5089905;28;20004;-72
2023/04/10 00:47:59;;;;;;;;;;;;;;;21.29;39.54;102071.03;5086760;28;19949;-72
2023/04/10 00:50:24;;;;;;;;;;;;;;;21.28;39.55;102069.34;5090163;28;19912;-72
2023/04/10 00:52:50;;;;;;;;;;;;;;;21.26;39.57;102063.22;5091973;28;19913;-72
2023/04/10 00:55:15;;;;;;;;;;;;;;;21.26;39.24;102059.69;5090616;28;19938;-72
2023/04/10 00:57:43;;;;;;;;;;;;;;;21.24;39.47;102057.13;5077244;28;19912;-72
2023/04/10 01:00:08;;;;;;;;;;;;;;;21.23;39.33;102044.59;5090535;28;19916;-72
2023/04/10 01:02:33;;;;;;;;;;;;;;;21.22;39.48;102045.59;5093805;28;19912;-72
2023/04/10 01:04:58;;;;;;;;;;;;;;;21.20;39.47;102043.06;5092416;28;19916;-72
2023/04/10 01:07:27;;;;;;;;;;;;;;;21.19;39.48;102038.66;5088385;28;20011;-72
2023/04/10 01:09:58;;;;;;;;;;;;;;;21.17;39.35;102027.16;5097158;28;20288;-72
2023/04/10 01:12:44;;;;;;;;;;;;;;;21.16;39.29;102033.56;5090848;28;19916;-72
2023/04/10 01:15:17;;;;;;;;;;;;;;;21.16;39.16;102033.56;5108082;28;19912;-72
2023/04/10 01:17:48;;;;;;;;;;;;;;;21.15;39.50;102036.41;5091601;28;19918;-71
2023/04/10 01:20:15;;;;;;;;;;;;;;;21.13;39.39;102030.31;5094671;28;19913;-72
2023/04/10 01:22:40;;;;;;;;;;;;;;;21.12;39.49;102036.75;5107929;28;19912;-72
2023/04/10 01:25:05;;;;;;;;;;;;;;;21.11;39.33;102035.91;5097972;28;20405;-72
2023/04/10 01:27:30;;;;;;;;;;;;;;;21.11;39.22;102037.72;5092732;28;19927;-72
2023/04/10 01:29:56;;;;;;;;;;;;;;;21.09;39.34;102037.03;5097192;28;19923;-71
2023/04/10 01:32:22;;;;;;;;;;;;;;;21.08;39.48;102035.34;5096290;28;19916;-71
2023/04/10 01:34:48;;;;;;;;;;;;;;;21.07;39.35;102031.81;5107394;28;19920;-72
2023/04/10 01:37:21;;;;;;;;;;;;;;;21.06;39.08;102037.34;5094964;28;19913;-71
2023/04/10 01:39:47;;;;;;;;;;;;;;;21.04;39.19;102033.97;5109793;28;20055;-70
2023/04/10 01:42:13;;;;;;;;;;;;;;;21.02;39.25;102034.09;5092061;28;19916;-72
2023/04/10 01:44:40;;;;;;;;;;;;;;;21.01;39.44;102032.41;5074314;28;19968;-72
2023/04/10 01:47:06;;;;;;;;;;;;;;;21.00;39.46;102029.88;5094827;28;20661;-72
2023/04/10 01:49:31;;;;;;;;;;;;;;;20.99;39.31;102034.44;5107962;28;19994;-72
2023/04/10 01:51:57;;;;;;;;;;;;;;;20.97;39.38;102025.63;5077188;28;19923;-72
2023/04/10 01:54:26;;;;;;;;;;;;;;;20.96;39.29;102024.75;5094817;28;19919;-72
2023/04/10 01:56:51;;;;;;;;;;;;;;;20.95;39.29;102027.63;5112494;28;19917;-72
2023/04/10 01:59:16;;;;;;;;;;;;;;;20.94;39.37;102028.63;5097285;28;19956;-72
2023/04/10 02:01:41;;;;;;;;;;;;;;;20.93;39.47;102029.63;5107529;28;19912;-73
2023/04/10 02:04:07;;;;;;;;;;;;;;;20.92;39.13;102022.53;5092686;28;19942;-71
2023/04/10 02:06:51;;;;;;;;;;;;;;;20.92;39.19;102019.81;5090737;28;19964;-73
2023/04/10 02:09:19;;;;;;;;;;;;;;;20.90;39.42;102021.84;5090646;28;19912;-72
2023/04/10 02:11:48;;;;;;;;;;;;;;;20.88;39.21;102016.56;5094316;28;19924;-72
2023/04/10 02:14:16;;;;;;;;;;;;;;;20.88;39.08;102023.84;5093750;28;19916;-72
2023/04/10 02:16:41;;;;;;;;;;;;;;;20.85;39.38;102014.19;5091057;28;19969;-73
2023/04/10 02:19:07;;;;;;;;;;;;;;;20.86;39.37;102009.66;5093481;28;19916;-73
2023/04/10 02:21:32;;;;;;;;;;;;;;;20.84;39.21;102007.09;5092582;28;19917;-73
2023/04/10 02:23:57;;;;;;;;;;;;;;;20.84;39.02;102008.94;5097111;28;19912;-74
2023/04/10 02:26:23;;;;;;;;;;;;;;;20.82;39.13;102005.56;5114051;28;19971;-72
2023/04/10 02:28:48;;;;;;;;;;;;;;;20.81;39.27;102003.84;5091480;28;19912;-71
2023/04/10 02:31:13;;;;;;;;;;;;;;;20.79;39.13;101998.59;5094996;28;19936;-72
2023/04/10 02:33:38;;;;;;;;;;;;;;;20.79;39.41;101997.75;5090583;28;19913;-72
2023/04/10 02:36:04;;;;;;;;;;;;;;;20.78;39.43;101993.34;5090209;28;19917;-72
2023/04/10 02:38:29;;;;;;;;;;;;;;;20.77;39.19;101989.78;5092005;28;19970;-72
2023/04/10 02:40:55;;;;;;;;;;;;;;;20.75;39.48;101988.25;5089715;28;19928;-72
2023/04/10 02:43:20;;;;;;;;;;;;;;;20.75;39.07;101993.66;5090964;28;19980;-72
2023/04/10 02:45:45;;;;;;;;;;;;;;;20.73;39.18;101988.41;5091071;28;20378;-72
2023/04/10 02:48:10;;;;;;;;;;;;;;;20.71;39.34;101983.13;5093368;28;19917;-71
2023/04/10 02:50:35;;;;;;;;;;;;;;;20.71;39.21;101979.59;5090576;28;19972;-73
2023/04/10 02:53:01;;;;;;;;;;;;;;;20.69;39.48;101987.03;5098094;28;19924;-73
2023/04/10 02:55:26;;;;;;;;;;;;;;;20.68;39.20;101990.69;5090741;28;19939;-72
2023/04/10 02:57:51;;;;;;;;;;;;;;;20.67;39.45;101987.16;5092690;28;19916;-72
2023/04/10 03:00:18;;;;;;;;;;;;;;;20.65;39.11;101983.78;5093544;28;19927;-72
2023/04/10 03:02:43;;;;;;;;;;;;;;;20.65;39.44;101977.53;5090402;28;19912;-73
2023/04/10 03:05:08;;;;;;;;;;;;;;;20.63;39.22;101974.09;5091859;28;19923;-72
2023/04/10 03:07:33;;;;;;;;;;;;;;;20.64;39.30;101975.81;5090096;28;20024;-72
2023/04/10 03:09:59;;;;;;;;;;;;;;;20.63;39.45;101976.81;5075275;28;19923;-71
2023/04/10 03:12:24;;;;;;;;;;;;;;;20.61;39.35;101976.13;5089713;28;19935;-72
2023/04/10 03:14:49;;;;;;;;;;;;;;;20.61;39.23;101982.38;5094224;28;19916;-72
2023/04/10 03:17:14;;;;;;;;;;;;;;;20.20;39.42;101914.38;5090900;28;20318;-73
2023/04/10 03:19:40;;;;;;;;;;;;;;;20.59;39.15;101968.16;5093884;28;20005;-73
2023/04/10 03:22:05;;;;;;;;;;;;;;;20.58;39.28;101979.97;5092585;28;19916;-73
2023/04/10 03:24:30;;;;;;;;;;;;;;;20.57;39.40;101977.44;5084968;28;19976;-72
2023/04/10 03:26:55;;;;;;;;;;;;;;;20.56;39.35;101978.41;5095412;28;19924;-72
2023/04/10 03:29:21;;;;;;;;;;;;;;;20.55;39.15;101976.72;5090439;28;19951;-72
2023/04/10 03:31:46;;;;;;;;;;;;;;;20.54;39.18;101975.03;5089123;28;19923;-73
2023/04/10 03:34:11;;;;;;;;;;;;;;;20.53;39.40;101981.44;5088784;28;19959;-72
2023/04/10 03:36:37;;;;;;;;;;;;;;;20.51;39.19;101978.88;5090163;28;20023;-72
2023/04/10 03:39:02;;;;;;;;;;;;;;;20.51;39.26;101975.34;5090050;28;19923;-72
2023/04/10 03:41:27;;;;;;;;;;;;;;;20.49;39.43;101978.19;5095008;28;19916;-72
2023/04/10 03:43:52;;;;;;;;;;;;;;;20.49;39.47;101970.09;5088169;28;20014;-72
2023/04/10 03:46:17;;;;;;;;;;;;;;;20.47;39.17;101967.53;5108603;28;20049;-72
2023/04/10 03:48:42;;;;;;;;;;;;;;;20.46;39.24;101964.97;5094409;28;20011;-72
2023/04/10 03:51:08;;;;;;;;;;;;;;;20.45;39.25;101965.97;5090278;28;19912;-73
2023/04/10 03:53:34;;;;;;;;;;;;;;;20.43;39.51;101966.13;5097673;28;19912;-72
2023/04/10 03:56:00;;;;;;;;;;;;;;;20.42;39.35;101961.72;5089063;28;19912;-72
2023/04/10 03:58:25;;;;;;;;;;;;;;;20.42;39.55;101969.81;5091934;28;19923;-72
2023/04/10 04:00:50;;;;;;;;;;;;;;;20.42;39.29;101968.97;5077759;28;20339;-72
2023/04/10 04:03:15;;;;;;;;;;;;;;;20.40;39.52;101966.44;5089767;28;19980;-72
2023/04/10 04:05:41;;;;;;;;;;;;;;;20.38;39.16;101960.31;5070870;28;19920;-72
2023/04/10 04:08:06;;;;;;;;;;;;;;;20.38;39.17;101960.31;5089030;28;19988;-73
2023/04/10 04:10:31;;;;;;;;;;;;;;;20.37;39.53;101955.91;5089933;28;19916;-73
2023/04/10 04:12:56;;;;;;;;;;;;;;;20.35;39.50;101952.53;5090067;28;19920;-73
2023/04/10 04:15:22;;;;;;;;;;;;;;;20.35;39.42;101952.53;5095523;28;19916;-72
2023/04/10 04:17:47;;;;;;;;;;;;;;;20.34;39.61;101950.81;5087599;28;19920;-72
2023/04/10 04:20:13;;;;;;;;;;;;;;;20.33;39.51;101948.28;5098463;28;19913;-72
2023/04/10 04:22:38;;;;;;;;;;;;;;;20.32;39.34;101941.19;5090792;28;19919;-72
2023/04/10 04:25:07;;;;;;;;;;;;;;;20.31;39.45;101943.03;5089324;28;19964;-72
2023/04/10 04:27:32;;;;;;;;;;;;;;;20.29;39.25;101939.63;5093116;28;19921;-72
2023/04/10 04:29:58;;;;;;;;;;;;;;;20.29;39.60;101942.34;5089189;28;19912;-73
2023/04/10 04:32:23;;;;;;;;;;;;;;;20.28;39.61;101940.63;5088999;28;19912;-72
2023/04/10 04:34:48;;;;;;;;;;;;;;;20.27;39.35;101936.25;5087782;28;19970;-72
2023/04/10 04:37:13;;;;;;;;;;;;;;;20.27;39.40;101935.41;5091250;28;19912;-72
2023/04/10 04:39:38;;;;;;;;;;;;;;;20.26;39.40;101930.97;5092160;28;20388;-72
2023/04/10 04:42:03;;;;;;;;;;;;;;;20.25;39.68;101929.28;5093984;28;19927;-72
2023/04/10 04:44:29;;;;;;;;;;;;;;;20.24;39.31;101925.75;5088498;28;19976;-72
2023/04/10 04:46:54;;;;;;;;;;;;;;;20.23;39.58;101933.00;5092440;28;19924;-72
2023/04/10 04:49:19;;;;;;;;;;;;;;;20.22;39.61;101927.75;5092545;28;19912;-72
2023/04/10 04:51:44;;;;;;;;;;;;;;;20.21;39.35;101931.44;5092804;28;19913;-72
2023/04/10 04:54:10;;;;;;;;;;;;;;;20.19;39.52;101926.19;5096928;28;19991;-72
2023/04/10 04:56:35;;;;;;;;;;;;;;;20.19;39.31;101928.91;5091397;28;19916;-72
2023/04/10 04:59:00;;;;;;;;;;;;;;;20.18;39.41;101931.78;5094171;28;19912;-72
2023/04/10 05:01:25;;;;;;;;;;;;;;;20.17;39.46;101925.50;5092344;28;19912;-72
2023/04/10 05:03:50;;;;;;;;;;;;;;;20.16;39.40;101925.66;5092865;28;19955;-71
2023/04/10 05:06:17;;;;;;;;;;;;;;;20.15;39.60;101924.81;5090389;28;19924;-67
2023/04/10 05:08:42;;;;;;;;;;;;;;;20.15;39.61;101926.66;5096609;28;19983;-72
2023/04/10 05:11:07;;;;;;;;;;;;;;;20.14;39.58;101919.56;5092957;28;19920;-72
2023/04/10 05:13:33;;;;;;;;;;;;;;;20.14;39.68;101924.97;5093967;28;19955;-72
2023/04/10 05:15:58;;;;;;;;;;;;;;;20.13;39.60;101917.84;5098702;28;19912;-70
2023/04/10 05:18:23;;;;;;;;;;;;;;;20.11;39.49;101915.31;5090533;28;19919;-72
2023/04/10 05:20:48;;;;;;;;;;;;;;;20.11;39.43;101914.47;5098396;28;19912;-72
2023/04/10 05:23:14;;;;;;;;;;;;;;;20.10;39.47;101910.06;5097356;28;19962;-71
2023/04/10 05:25:39;;;;;;;;;;;;;;;20.09;39.67;101914.63;5086277;28;19919;-70
2023/04/10 05:28:04;;;;;;;;;;;;;;;20.10;39.75;101912.78;5100108;28;19975;-70
2023/04/10 05:30:29;;;;;;;;;;;;;;;20.08;39.93;101907.50;5099071;28;19920;-72
2023/04/10 05:32:55;;;;;;;;;;;;;;;20.08;39.67;101907.50;5099479;28;19919;-70
2023/04/10 05:35:20;;;;;;;;;;;;;;;20.08;39.74;101903.97;5101622;28;19985;-69
2023/04/10 05:37:45;;;;;;;;;;;;;;;20.07;40.29;101903.13;5099883;28;20394;-70
2023/04/10 05:40:11;;;;;;;;;;;;;;;20.07;40.38;101908.50;5092614;28;19962;-70
2023/04/10 05:42:36;;;;;;;;;;;;;;;20.08;40.66;101910.22;5094524;28;19912;-68
2023/04/10 05:45:01;;;;;;;;;;;;;;;20.08;40.49;101910.22;5091841;28;19912;-68
2023/04/10 05:47:26;;;;;;;;;;;;;;;20.08;40.59;101907.50;5098876;28;19924;-68
2023/04/10 05:49:51;;;;;;;;;;;;;;;20.09;40.56;101911.06;5102642;28;19924;-68
2023/04/10 05:52:16;;;;;;;;;;;;;;;20.09;40.51;101909.22;5102026;28;19920;-69
2023/04/10 05:54:42;;;;;;;;;;;;;;;20.10;40.75;101904.69;5101553;28;19916;-69
2023/04/10 05:57:07;;;;;;;;;;;;;;;20.09;40.82;101901.13;5101033;28;19922;-69
2023/04/10 05:59:32;;;;;;;;;;;;;;;20.10;40.97;101907.38;5100823;28;20258;-69
2023/04/10 06:01:57;;;;;;;;;;;;;;;20.09;40.89;101898.44;5101929;28;19919;-70
2023/04/10 06:04:22;;;;;;;;;;;;;;;20.10;41.12;101901.97;5100352;28;19912;-69
2023/04/10 06:06:48;;;;;;;;;;;;;;;20.09;41.18;101901.13;5098460;28;19920;-68
2023/04/10 06:09:13;;;;;;;;;;;;;;;20.10;41.01;101899.28;5099997;28;19961;-69
2023/04/10 06:11:38;;;;;;;;;;;;;;;20.09;40.88;101898.44;5097873;28;19920;-70
2023/04/10 06:14:03;;;;;;;;;;;;;;;20.10;40.82;101901.97;5099197;28;19983;-71
2023/04/10 06:16:28;;;;;;;;;;;;;;;20.10;40.90;101897.41;5099534;28;19965;-70
2023/04/10 06:18:53;;;;;;;;;;;;;;;20.11;40.70;101895.56;5100552;28;19913;-70
2023/04/10 06:21:19;;;;;;;;;;;;;;;20.10;40.85;101891.19;5101661;28;20257;-69
2023/04/10 06:23:44;;;;;;;;;;;;;;;20.10;40.80;101894.72;5098818;28;19951;-68
2023/04/10 06:26:10;;;;;;;;;;;;;;;20.10;40.82;101883.06;5082840;28;19920;-68
2023/04/10 06:28:35;;;;;;;;;;;;;;;20.10;40.88;101874.97;5105644;28;19959;-69
2023/04/10 06:31:02;;;;;;;;;;;;;;;20.09;40.82;101868.72;5102153;28;19916;-68
2023/04/10 06:33:28;;;;;;;;;;;;;;;20.10;41.06;101865.03;5101045;28;19920;-69
2023/04/10 06:35:53;;;;;;;;;;;;;;;20.10;40.90;101861.47;5101179;28;19922;-68
2023/04/10 06:38:18;;;;;;;;;;;;;;;20.10;41.15;101851.53;5098507;28;19983;-68
2023/04/10 06:40:43;;;;;;;;;;;;;;;20.10;41.09;101854.22;5101162;28;19912;-67
2023/04/10 06:43:09;;;;;;;;;;;;;;;20.10;41.00;101848.81;5101800;28;19965;-68
2023/04/10 06:45:34;;;;;;;;;;;;;;;20.11;41.05;101849.66;5083172;28;19923;-68
2023/04/10 06:47:59;;;;;;;;;;;;;;;20.11;40.88;101849.66;5101102;28;19923;-68
2023/04/10 06:50:24;;;;;;;;;;;;;;;20.11;40.84;101846.97;5094965;28;19946;-69
2023/04/10 06:52:51;;;;;;;;;;;;;;;20.10;41.15;101848.81;5100832;28;19916;-69
2023/04/10 06:55:17;;;;;;;;;;;;;;;20.11;40.87;101853.22;5101571;28;19943;-67
2023/04/10 06:57:42;;;;;;;;;;;;;;;20.11;40.94;101855.06;5101187;28;19912;-67
2023/04/10 07:00:08;;;;;;;;;;;;;;;20.10;40.85;101842.56;5098282;28;19919;-68
2023/04/10 07:02:33;;;;;;;;;;;;;;;20.10;40.82;101840.72;5101136;28;19912;-67
2023/04/10 07:04:58;;;;;;;;;;;;;;;20.10;40.63;101838.03;5094771;28;19919;-67
2023/04/10 07:07:23;;;;;;;;;;;;;;;20.11;40.54;101828.06;5087768;28;20393;-67
2023/04/10 07:09:49;;;;;;;;;;;;;;;20.11;40.42;101825.38;5096680;28;19924;-67
2023/04/10 07:12:14;;;;;;;;;;;;;;;20.10;40.45;101820.97;5091643;28;19912;-67
2023/04/10 07:14:40;;;;;;;;;;;;;;;20.11;40.27;101817.28;5089361;28;19944;-66
2023/04/10 07:17:05;;;;;;;;;;;;;;;20.09;40.30;101803.94;5092910;28;19917;-67
2023/04/10 07:19:30;;;;;;;;;;;;;;;20.10;40.55;101802.94;5089605;28;19912;-67
2023/04/10 07:21:55;;;;;;;;;;;;;;;20.10;40.27;101799.38;5090237;28;19916;-67
2023/04/10 07:24:21;;;;;;;;;;;;;;;20.10;40.24;101792.13;5087764;28;19934;-67
2023/04/10 07:26:46;;;;;;;;;;;;;;;20.10;40.39;101786.72;5091889;28;19931;-67
2023/04/10 07:29:11;;;;;;;;;;;;;;;20.10;40.32;101777.78;5091217;28;19962;-68
2023/04/10 07:31:37;;;;;;;;;;;;;;;20.11;40.04;101783.03;5093873;28;19920;-67
2023/04/10 07:34:02;;;;;;;;;;;;;;;20.10;40.12;101764.28;5082441;28;20383;-66
2023/04/10 07:36:27;;;;;;;;;;;;;;;20.11;40.25;101763.28;5093433;28;19932;-66
2023/04/10 07:38:52;;;;;;;;;;;;;;;20.11;40.01;101757.88;5094080;28;20469;-67
2023/04/10 07:41:18;;;;;;;;;;;;;;;20.11;40.25;101755.19;5089474;28;20372;-67
2023/04/10 07:43:43;;;;;;;;;;;;;;;20.11;40.13;101750.63;5094443;28;19912;-67
2023/04/10 07:46:08;;;;;;;;;;;;;;;20.11;40.06;101737.13;5088131;28;19920;-67
2023/04/10 07:48:33;;;;;;;;;;;;;;;20.11;40.04;101739.81;5089870;28;20313;-67
2023/04/10 07:50:58;;;;;;;;;;;;;;;20.13;39.78;101739.66;5090536;28;19919;-67
2023/04/10 07:53:23;;;;;;;;;;;;;;;20.12;39.75;101730.72;5092308;28;20284;-67
2023/04/10 07:55:49;;;;;;;;;;;;;;;20.12;39.75;101730.72;5089874;28;19912;-67
2023/04/10 07:58:15;;;;;;;;;;;;;;;20.12;39.68;101724.47;5088533;28;19920;-67
2023/04/10 08:00:40;;;;;;;;;;;;;;;20.11;39.50;101723.63;5094093;28;19916;-67
2023/04/10 08:03:06;;;;;;;;;;;;;;;20.12;39.90;101721.75;5099085;28;19912;-67
2023/04/10 08:05:31;;;;;;;;;;;;;;;20.13;39.56;101726.16;5097847;28;19923;-67
2023/04/10 08:07:56;;;;;;;;;;;;;;;20.12;39.47;101721.75;5087473;28;19924;-67
2023/04/10 08:10:21;;;;;;;;;;;;;;;20.12;39.42;101716.38;5098620;28;19919;-67
2023/04/10 08:12:46;;;;;;;;;;;;;;;20.11;39.50;101720.91;5089572;28;19939;-67
2023/04/10 08:15:11;;;;;;;;;;;;;;;20.11;39.42;101720.91;5091107;28;19917;-69
2023/04/10 08:17:37;;;;;;;;;;;;;;;20.12;39.61;101722.59;5094062;28;19917;-69
2023/04/10 08:20:03;;;;;;;;;;;;;;;20.12;39.80;101717.22;5089730;28;20023;-69
2023/04/10 08:22:28;;;;;;;;;;;;;;;20.13;39.88;101723.44;5088473;28;19951;-70
2023/04/10 08:24:53;;;;;;;;;;;;;;;20.14;39.98;101711.66;5099420;28;19924;-71
2023/04/10 08:27:19;;;;;;;;;;;;;;;20.15;40.10;101707.97;5102627;28;19987;-70
2023/04/10 08:29:44;;;;;;;;;;;;;;;20.15;40.22;101708.81;5101751;28;20348;-67
2023/04/10 08:32:09;;;;;;;;;;;;;;;20.17;40.06;101701.38;5103085;28;19939;-66
2023/04/10 08:34:34;;;;;;;;;;;;;;;20.18;40.19;101696.84;5100457;28;19943;-70
2023/04/10 08:37:00;;;;;;;;;;;;;;;20.20;40.37;101700.22;5083284;28;19913;-70
2023/04/10 08:39:25;;;;;;;;;;;;;;;20.21;40.25;101701.91;5096708;28;19922;-71
2023/04/10 08:41:50;;;;;;;;;;;;;;;20.21;40.17;101699.22;5092502;28;19917;-70
2023/04/10 08:44:15;;;;;;;;;;;;;;;20.22;40.07;101693.69;5097009;28;19956;-71
2023/04/10 08:46:42;;;;;;;;;;;;;;;20.21;39.98;101689.25;5081160;28;19916;-70
2023/04/10 08:49:07;;;;;;;;;;;;;;;20.24;39.85;101688.09;5091847;28;19966;-70
2023/04/10 08:51:41;;;;;;;;;;;;;;;20.25;39.92;101695.19;5075031;28;19912;-70
2023/04/10 08:54:07;;;;;;;;;;;;;;;20.26;40.19;101687.94;5077080;28;20593;-69
2023/04/10 08:56:32;;;;;;;;;;;;;;;20.26;40.11;101691.47;5092539;28;19919;-70
2023/04/10 08:58:58;;;;;;;;;;;;;;;20.26;40.07;101679.84;5078267;28;19920;-70
2023/04/10 09:01:23;;;;;;;;;;;;;;;20.27;40.06;101687.78;5108844;28;19923;-70
2023/04/10 09:03:48;;;;;;;;;;;;;;;20.28;39.97;101672.44;5111795;28;19912;-70
2023/04/10 09:06:13;;;;;;;;;;;;;;;20.29;39.93;101674.13;5086191;28;19955;-70
2023/04/10 09:08:38;;;;;;;;;;;;;;;20.29;39.59;101677.66;5092029;28;19920;-70
2023/04/10 09:11:04;;;;;;;;;;;;;;;20.29;39.54;101669.56;5096117;28;19923;-70
2023/04/10 09:13:36;;;;;;;;;;;;;;;20.31;39.51;101661.31;5090784;28;19912;-70
2023/04/10 09:16:01;;;;;;;;;;;;;;;20.32;39.57;101671.97;5091962;28;19912;-70
2023/04/10 09:18:42;;;;;;;;;;;;;;;20.32;39.69;101669.25;5079567;28;19956;-70
2023/04/10 09:21:10;;;;;;;;;;;;;;;20.33;39.56;101670.94;5094756;28;19912;-69
2023/04/10 09:23:35;;;;;;;;;;;;;;;20.34;39.57;101666.38;5092097;28;20400;-70
2023/04/10 09:26:01;;;;;;;;;;;;;;;20.34;39.39;101671.78;5095318;28;19919;-70
2023/04/10 09:28:26;;;;;;;;;;;;;;;20.35;39.54;101666.25;5111826;28;20010;-70
2023/04/10 09:30:51;;;;;;;;;;;;;;;20.35;39.35;101663.53;5095314;28;19923;-70
2023/04/10 09:33:23;;;;;;;;;;;;;;;20.37;39.32;101657.97;5114473;28;19912;-69
2023/04/10 09:35:49;;;;;;;;;;;;;;;20.36;39.47;101654.44;5091770;28;19947;-69
2023/04/10 09:38:18;;;;;;;;;;;;;;;20.36;39.13;101645.47;5094361;28;19919;-70
2023/04/10 09:40:44;;;;;;;;;;;;;;;20.37;39.31;101644.47;5091357;28;19958;-70
2023/04/10 09:43:24;;;;;;;;;;;;;;;20.37;39.24;101633.66;5091907;28;20319;-69
2023/04/10 09:45:53;;;;;;;;;;;;;;;20.38;39.19;101613.75;5093516;28;20335;-70
2023/04/10 09:48:19;;;;;;;;;;;;;;;20.37;39.15;101615.59;5093756;28;19917;-70
2023/04/10 09:50:44;;;;;;;;;;;;;;;20.38;39.31;101606.47;5090871;28;19912;-70
2023/04/10 09:53:13;;;;;;;;;;;;;;;20.38;39.04;101600.25;5093922;28;19916;-69
2023/04/10 09:55:39;;;;;;;;;;;;;;;20.39;39.08;101593.81;5091966;28;19919;-70
2023/04/10 09:58:04;;;;;;;;;;;;;;;20.40;39.09;101587.44;5109521;28;19916;-69
2023/04/10 10:00:29;;;;;;;;;;;;;;;20.40;39.02;101585.56;5098508;28;19913;-70
2023/04/10 10:02:55;;;;;;;;;;;;;;;20.41;38.98;101587.25;5085468;28;19939;-70
2023/04/10 10:05:21;;;;;;;;;;;;;;;20.43;38.94;101582.56;5095296;28;19923;-70
2023/04/10 10:07:46;;;;;;;;;;;;;;;20.44;39.12;101578.00;5106898;28;19928;-69
2023/04/10 10:10:12;;;;;;;;;;;;;;;20.45;38.93;101577.81;5090538;28;19916;-70
2023/04/10 10:12:44;;;;;;;;;;;;;;;20.45;38.74;101569.72;5075695;28;19923;-70
2023/04/10 10:15:11;;;;;;;;;;;;;;;20.49;39.01;101561.34;5111415;28;19936;-69
2023/04/10 10:18:06;;;;;;;;;;;;;;;20.50;39.09;101561.16;5106217;28;19916;-70
2023/04/10 10:20:31;;;;;;;;;;;;;;;20.52;38.92;101551.06;5084633;28;19924;-71
2023/04/10 10:22:57;;;;;;;;;;;;;;;20.55;38.86;101555.25;5078590;28;19916;-70
2023/04/10 10:25:22;;;;;;;;;;;;;;;20.56;38.89;101546.16;5100702;28;19972;-71
2023/04/10 10:27:48;;;;;;;;;;;;;;;20.57;39.15;101543.28;5098219;28;19925;-72
2023/04/10 10:30:13;;;;;;;;;;;;;;;20.57;39.15;101535.19;5095110;28;19920;-70
2023/04/10 10:32:39;;;;;;;;;;;;;;;20.60;39.22;101539.41;5113232;28;19918;-69
2023/04/10 10:35:06;;;;;;;;;;;;;;;20.61;39.48;101525.75;5091335;28;19943;-69
2023/04/10 10:37:31;;;;;;;;;;;;;;;20.64;39.63;101521.84;5090653;28;19951;-69
2023/04/10 10:40:00;;;;;;;;;;;;;;;20.64;39.49;101519.16;5061338;28;19977;-69
2023/04/10 10:42:32;;;;;;;;;;;;;;;20.66;39.60;101511.75;5091105;28;20414;-70
2023/04/10 10:45:08;;;;;;;;;;;;;;;20.70;39.66;101507.69;5108268;28;19984;-71
2023/04/10 10:47:37;;;;;;;;;;;;;;;20.73;39.83;101512.78;5097937;28;19973;-66
2023/04/10 10:50:02;;;;;;;;;;;;;;;20.74;39.95;101503.66;5081255;28;20292;-69
2023/04/10 10:52:48;;;;;;;;;;;;;;;20.77;40.01;101497.06;5097449;28;19961;-72
2023/04/10 10:55:23;;;;;;;;;;;;;;;20.78;40.07;101496.91;5094157;28;19920;-72
2023/04/10 10:57:50;;;;;;;;;;;;;;;20.80;39.89;101497.56;5092394;28;20288;-73
2023/04/10 11:00:15;;;;;;;;;;;;;;;20.82;40.08;101489.31;5093027;28;19916;-72
2023/04/10 11:02:41;;;;;;;;;;;;;;;20.82;39.80;101482.06;5089804;28;19923;-69
2023/04/10 11:05:06;;;;;;;;;;;;;;;20.83;40.13;101474.78;5091430;28;19919;-68
2023/04/10 11:07:50;;;;;;;;;;;;;;;20.83;39.90;101459.41;5108064;28;19925;-67
2023/04/10 11:10:15;;;;;;;;;;;;;;;20.85;40.12;101456.53;5072061;28;19923;-70
2023/04/10 11:12:59;;;;;;;;;;;;;;;20.87;39.84;101460.75;5089719;28;19916;-73
2023/04/10 11:15:24;;;;;;;;;;;;;;;20.89;40.06;101455.19;5094248;28;19912;-71
2023/04/10 11:17:50;;;;;;;;;;;;;;;20.87;39.87;101449.09;5089165;28;19973;-71
2023/04/10 11:20:16;;;;;;;;;;;;;;;20.85;40.01;101443.84;5092309;28;19977;-71
2023/04/10 11:23:00;;;;;;;;;;;;;;;20.87;40.19;101441.00;5093938;28;19915;-71
2023/04/10 11:25:44;;;;;;;;;;;;;;;20.88;39.82;101435.41;5093423;28;19943;-71
2023/04/10 11:28:10;;;;;;;;;;;;;;;20.90;39.99;101436.09;5095959;28;20007;-71
2023/04/10 11:30:35;;;;;;;;;;;;;;;20.90;39.86;101428.00;5090002;28;19920;-71
2023/04/10 11:33:01;;;;;;;;;;;;;;;20.91;39.86;101435.09;5091657;28;19983;-71
2023/04/10 11:35:27;;;;;;;;;;;;;;;20.94;39.87;101420.38;5078694;28;19916;-71
2023/04/10 11:38:15;;;;;;;;;;;;;;;20.95;39.99;101420.22;5089870;28;19912;-71
2023/04/10 11:40:53;;;;;;;;;;;;;;;20.97;40.06;101407.38;5091366;28;19912;-70
2023/04/10 11:43:18;;;;;;;;;;;;;;;20.99;39.81;101409.91;5093403;28;19938;-71
2023/04/10 11:45:43;;;;;;;;;;;;;;;21.01;39.68;101409.72;5089381;28;19916;-71
2023/04/10 11:48:09;;;;;;;;;;;;;;;21.02;39.74;101408.72;5089139;28;19916;-71
2023/04/10 11:50:35;;;;;;;;;;;;;;;21.02;39.58;101401.44;5091966;28;20439;-72
2023/04/10 11:53:00;;;;;;;;;;;;;;;21.03;39.76;101386.94;5090667;28;19916;-71
2023/04/10 11:55:36;;;;;;;;;;;;;;;21.03;39.63;101376.13;5097554;28;19912;-72
2023/04/10 11:58:01;;;;;;;;;;;;;;;21.04;39.51;101380.50;5090372;28;20676;-71
2023/04/10 12:00:26;;;;;;;;;;;;;;;21.05;39.71;101376.78;5095968;28;19928;-72
2023/04/10 12:02:52;;;;;;;;;;;;;;;21.06;39.83;101373.06;5089100;28;20361;-72
2023/04/10 12:05:17;;;;;;;;;;;;;;;21.08;39.91;101367.50;5070702;28;19916;-72
2023/04/10 12:07:42;;;;;;;;;;;;;;;21.09;39.92;101361.06;5070655;28;19933;-72
2023/04/10 12:10:09;;;;;;;;;;;;;;;21.11;39.66;101357.19;5068882;28;20574;-72
2023/04/10 12:12:35;;;;;;;;;;;;;;;21.13;39.63;101348.88;5070642;28;19917;-71
2023/04/10 12:15:01;;;;;;;;;;;;;;;21.13;39.72;101357.84;5072365;28;19962;-72
2023/04/10 12:17:26;;;;;;;;;;;;;;;21.13;39.90;101348.88;5072130;28;19924;-72
2023/04/10 12:19:51;;;;;;;;;;;;;;;21.13;39.76;101338.91;5069186;28;19951;-72
2023/04/10 12:22:16;;;;;;;;;;;;;;;21.14;39.92;101342.44;5077108;28;19913;-71
2023/04/10 12:24:45;;;;;;;;;;;;;;;21.13;39.86;101341.63;5102804;28;20472;-72
2023/04/10 12:27:17;;;;;;;;;;;;;;;21.14;39.83;101340.59;5073347;28;19917;-72
2023/04/10 12:29:43;;;;;;;;;;;;;;;21.14;39.76;101342.44;5104266;28;19963;-72
2023/04/10 12:32:08;;;;;;;;;;;;;;;21.13;39.78;101336.22;5068949;28;19928;-71